createdAt,value
2022-07-27T00:01:11.208Z,99.90
2022-07-27T00:03:43.833Z,99.90
2022-07-27T00:06:10.481Z,99.90
2022-07-27T00:08:39.310Z,99.90
2022-07-27T00:11:09.150Z,99.90
2022-07-27T00:13:36.516Z,99.90
2022-07-27T00:16:03.525Z,99.90
2022-07-27T00:18:37.549Z,99.90
2022-07-27T00:21:04.298Z,99.90
2022-07-27T00:23:31.127Z,99.90
2022-07-27T00:26:01.754Z,99.90
2022-07-27T00:28:31.091Z,99.90
2022-07-27T00:30:57.954Z,99.90
2022-07-27T00:33:24.647Z,99.90
2022-07-27T00:35:52.437Z,99.90
2022-07-27T00:38:20.210Z,99.90
2022-07-27T00:40:46.928Z,99.90
2022-07-27T00:43:14.517Z,99.90
2022-07-27T00:45:41.383Z,99.90
2022-07-27T00:48:08.190Z,99.90
2022-07-27T00:50:35.238Z,99.90
2022-07-27T00:53:04.207Z,99.90
2022-07-27T00:55:32.732Z,99.90
2022-07-27T00:58:01.048Z,99.90
2022-07-27T01:00:28.046Z,99.90
2022-07-27T01:02:54.791Z,99.90
2022-07-27T01:05:36.572Z,99.90
2022-07-27T01:08:07.070Z,99.90
2022-07-27T01:10:34.725Z,99.90
2022-07-27T01:13:04.057Z,99.90
2022-07-27T01:15:31.619Z,99.90
2022-07-27T01:18:09.592Z,99.90
2022-07-27T01:20:36.793Z,99.90
2022-07-27T01:23:08.187Z,99.90
2022-07-27T01:25:34.882Z,99.90
2022-07-27T01:28:01.545Z,99.90
2022-07-27T01:30:29.649Z,99.90
2022-07-27T01:33:05.986Z,99.90
2022-07-27T01:35:35.913Z,99.90
2022-07-27T01:38:11.477Z,99.90
2022-07-27T01:40:39.043Z,99.90
2022-07-27T01:43:05.764Z,99.90
2022-07-27T01:45:32.604Z,99.90
2022-07-27T01:47:59.289Z,99.90
2022-07-27T01:50:26.002Z,99.90
2022-07-27T01:52:52.879Z,99.90
2022-07-27T01:55:22.370Z,99.90
2022-07-27T01:57:51.287Z,99.90
2022-07-27T02:00:19.200Z,99.90
2022-07-27T02:02:46.381Z,99.90
2022-07-27T02:05:13.264Z,99.90
2022-07-27T02:07:41.758Z,99.90
2022-07-27T02:10:09.746Z,99.90
2022-07-27T02:12:36.939Z,99.90
2022-07-27T02:15:14.723Z,99.90
2022-07-27T02:17:46.106Z,99.90
2022-07-27T02:20:17.064Z,99.90
2022-07-27T02:22:44.923Z,99.90
2022-07-27T02:25:15.602Z,99.90
2022-07-27T02:27:45.133Z,99.90
2022-07-27T02:30:12.797Z,99.90
2022-07-27T02:32:44.436Z,99.90
2022-07-27T02:35:18.800Z,99.90
2022-07-27T02:37:47.854Z,99.90
2022-07-27T02:40:21.401Z,99.90
2022-07-27T02:42:55.187Z,99.90
2022-07-27T02:45:22.499Z,99.90
2022-07-27T02:47:49.281Z,99.90
2022-07-27T02:50:16.139Z,99.90
2022-07-27T02:52:42.804Z,99.90
2022-07-27T02:55:10.213Z,99.90
2022-07-27T02:57:40.351Z,99.90
2022-07-27T03:00:33.475Z,99.90
2022-07-27T03:03:13.717Z,99.90
2022-07-27T03:05:44.399Z,99.90
2022-07-27T03:08:11.109Z,99.90
2022-07-27T03:10:40.437Z,99.90
2022-07-27T03:13:11.997Z,99.90
2022-07-27T03:15:43.754Z,99.90
2022-07-27T03:18:12.720Z,99.90
2022-07-27T03:20:39.436Z,99.90
2022-07-27T03:23:06.253Z,99.90
2022-07-27T03:25:32.896Z,99.90
2022-07-27T03:28:04.030Z,99.90
2022-07-27T03:30:36.197Z,99.90
2022-07-27T03:33:03.142Z,99.90
2022-07-27T03:35:29.922Z,99.90
2022-07-27T03:37:56.624Z,99.90
2022-07-27T03:40:23.237Z,99.90
2022-07-27T03:42:52.411Z,99.90
2022-07-27T03:45:19.234Z,99.90
2022-07-27T03:47:45.935Z,99.90
2022-07-27T03:50:12.610Z,99.90
2022-07-27T03:52:40.421Z,99.90
2022-07-27T03:55:17.441Z,99.90
2022-07-27T03:57:44.142Z,99.90
2022-07-27T04:00:12.334Z,99.90
2022-07-27T04:02:40.956Z,99.90
2022-07-27T04:05:11.099Z,99.90
2022-07-27T04:07:40.457Z,99.90
2022-07-27T04:10:08.412Z,99.90
2022-07-27T04:12:36.783Z,99.90
2022-07-27T04:15:07.582Z,99.90
2022-07-27T04:17:54.169Z,99.90
2022-07-27T04:20:27.453Z,99.90
2022-07-27T04:22:57.515Z,99.90
2022-07-27T04:25:25.265Z,99.90
2022-07-27T04:27:56.195Z,99.90
2022-07-27T04:30:23.383Z,99.90
2022-07-27T04:32:50.608Z,99.90
2022-07-27T04:35:26.661Z,99.90
2022-07-27T04:37:58.506Z,99.90
2022-07-27T04:40:29.169Z,99.90
2022-07-27T04:42:56.937Z,99.90
2022-07-27T04:45:23.729Z,99.90
2022-07-27T04:47:52.732Z,99.90
2022-07-27T04:50:19.530Z,99.90
2022-07-27T04:52:48.474Z,99.90
2022-07-27T04:55:15.377Z,99.90
2022-07-27T04:57:44.979Z,99.90
2022-07-27T05:00:12.106Z,99.90
2022-07-27T05:02:45.525Z,99.90
2022-07-27T05:05:12.243Z,99.90
2022-07-27T05:07:41.352Z,99.90
2022-07-27T05:10:08.562Z,99.90
2022-07-27T05:12:35.239Z,99.90
2022-07-27T05:15:04.959Z,99.90
2022-07-27T05:17:31.769Z,99.90
2022-07-27T05:20:25.503Z,99.90
2022-07-27T05:22:52.345Z,99.90
2022-07-27T05:25:20.836Z,99.90
2022-07-27T05:27:54.491Z,99.90
2022-07-27T05:30:27.430Z,99.90
2022-07-27T05:33:02.578Z,99.90
2022-07-27T05:35:30.591Z,99.90
2022-07-27T05:38:00.500Z,99.90
2022-07-27T05:40:30.304Z,99.90
2022-07-27T05:42:59.262Z,99.90
2022-07-27T05:45:26.512Z,99.90
2022-07-27T05:47:58.530Z,99.90
2022-07-27T05:50:29.704Z,99.90
2022-07-27T05:52:58.013Z,99.90
2022-07-27T05:55:27.020Z,99.90
2022-07-27T05:57:55.405Z,99.90
2022-07-27T06:00:27.518Z,99.90
2022-07-27T06:02:54.237Z,99.90
2022-07-27T06:05:24.660Z,99.90
2022-07-27T06:11:18.699Z,99.90
2022-07-27T06:13:46.593Z,99.90
2022-07-27T06:16:17.207Z,99.90
2022-07-27T06:18:45.562Z,99.90
2022-07-27T06:21:12.229Z,99.90
2022-07-27T06:23:41.384Z,99.90
2022-07-27T06:26:08.753Z,99.90
2022-07-27T06:28:35.776Z,99.90
2022-07-27T06:31:02.397Z,99.90
2022-07-27T06:33:33.550Z,99.90
2022-07-27T06:36:01.689Z,99.90
2022-07-27T06:38:32.220Z,99.90
2022-07-27T06:41:01.425Z,99.90
2022-07-27T06:43:31.098Z,99.90
2022-07-27T06:45:59.687Z,99.90
2022-07-27T06:48:26.931Z,99.90
2022-07-27T06:50:53.839Z,99.90
2022-07-27T06:53:21.702Z,99.90
2022-07-27T06:55:49.282Z,99.90
2022-07-27T06:58:21.291Z,99.90
2022-07-27T07:00:49.343Z,99.90
2022-07-27T07:03:16.437Z,99.90
2022-07-27T07:05:56.693Z,99.90
2022-07-27T07:08:27.253Z,99.90
2022-07-27T07:10:55.743Z,99.90
2022-07-27T07:13:28.535Z,99.90
2022-07-27T07:15:58.451Z,99.90
2022-07-27T07:18:27.413Z,99.90
2022-07-27T07:21:03.288Z,99.90
2022-07-27T07:23:30.307Z,99.90
2022-07-27T07:26:00.952Z,99.90
2022-07-27T07:28:27.779Z,99.90
2022-07-27T07:30:56.825Z,99.90
2022-07-27T07:33:42.328Z,99.90
2022-07-27T07:45:03.778Z,99.90
2022-07-27T07:47:34.505Z,99.90
2022-07-27T07:53:29.717Z,99.90
2022-07-27T07:58:45.881Z,99.90
2022-07-27T08:01:39.024Z,99.90
2022-07-27T08:04:06.871Z,99.90
2022-07-27T08:06:34.411Z,99.90
2022-07-27T08:09:02.085Z,99.90
2022-07-27T08:11:29.743Z,99.90
2022-07-27T08:14:00.699Z,99.90
2022-07-27T08:16:27.403Z,99.90
2022-07-27T08:18:54.969Z,99.90
2022-07-27T08:21:21.784Z,99.90
2022-07-27T08:23:48.759Z,99.90
2022-07-27T08:26:17.778Z,99.90
2022-07-27T08:28:44.781Z,99.90
2022-07-27T08:31:22.673Z,99.90
2022-07-27T08:33:53.375Z,99.90
2022-07-27T08:36:21.916Z,99.90
2022-07-27T08:38:48.627Z,99.90
2022-07-27T08:41:17.651Z,99.90
2022-07-27T08:43:48.759Z,99.90
2022-07-27T08:46:17.940Z,99.90
2022-07-27T08:48:47.353Z,99.90
2022-07-27T08:51:14.842Z,99.90
2022-07-27T08:53:52.564Z,99.90
2022-07-27T08:56:24.969Z,99.90
2022-07-27T08:58:52.048Z,99.90
2022-07-27T09:01:19.225Z,99.90
2022-07-27T09:03:46.046Z,99.90
2022-07-27T09:06:13.031Z,99.00
2022-07-27T09:08:58.588Z,98.40
2022-07-27T09:11:25.331Z,98.50
2022-07-27T09:14:03.956Z,98.20
2022-07-27T09:17:14.821Z,98.40
2022-07-27T09:19:20.834Z,98.20
2022-07-27T09:21:49.973Z,97.80
2022-07-27T09:24:45.494Z,98.40
2022-07-27T09:27:04.886Z,97.50
2022-07-27T09:29:35.687Z,97.40
2022-07-27T09:32:14.986Z,97.60
2022-07-27T09:34:44.881Z,97.60
2022-07-27T09:37:22.129Z,97.50
2022-07-27T09:39:49.889Z,97.40
2022-07-27T09:43:03.523Z,97.10
2022-07-27T09:45:35.983Z,98.60
2022-07-27T09:48:15.328Z,96.50
2022-07-27T09:50:58.413Z,96.20
2022-07-27T09:53:43.687Z,95.40
2022-07-27T09:56:15.200Z,93.80
2022-07-27T09:58:46.457Z,93.10
2022-07-27T10:01:21.096Z,92.50
2022-07-27T10:03:49.838Z,91.90
2022-07-27T10:06:16.731Z,92.30
2022-07-27T10:08:46.983Z,92.70
2022-07-27T10:11:17.132Z,92.50
2022-07-27T10:13:46.305Z,92.80
2022-07-27T10:34:46.211Z,92.20
2022-07-27T10:40:36.115Z,92.00
2022-07-27T10:46:20.086Z,91.80
2022-07-27T10:51:41.679Z,91.70
2022-07-27T10:54:44.029Z,91.40
2022-07-27T10:57:25.737Z,91.50
2022-07-27T11:00:08.604Z,92.00
2022-07-27T11:02:42.471Z,91.20
2022-07-27T11:05:42.571Z,90.50
2022-07-27T11:08:36.800Z,90.00
2022-07-27T11:11:08.179Z,90.50
2022-07-27T11:13:39.897Z,88.70
2022-07-27T11:19:07.223Z,86.30
2022-07-27T11:21:41.062Z,86.40
2022-07-27T11:24:15.957Z,83.50
2022-07-27T11:27:16.386Z,82.20
2022-07-27T11:29:46.300Z,81.00
2022-07-27T11:35:29.219Z,81.20
2022-07-27T11:38:05.958Z,79.60
2022-07-27T11:40:57.124Z,78.00
2022-07-27T11:46:48.155Z,79.40
2022-07-27T11:49:20.820Z,76.90
2022-07-27T11:51:52.109Z,73.90
2022-07-27T11:54:30.099Z,72.80
2022-07-27T11:57:04.452Z,72.10
2022-07-27T12:00:00.705Z,71.60
2022-07-27T12:02:27.739Z,72.30
2022-07-27T12:05:02.612Z,73.90
2022-07-27T12:10:46.700Z,71.30
2022-07-27T12:13:20.691Z,70.30
2022-07-27T12:16:18.574Z,69.10
2022-07-27T12:18:46.170Z,66.60
2022-07-27T12:21:38.540Z,67.50
2022-07-27T12:24:06.988Z,66.20
2022-07-27T12:26:36.761Z,66.60
2022-07-27T12:29:12.891Z,65.00
2022-07-27T12:31:50.674Z,66.70
2022-07-27T12:40:31.328Z,70.30
2022-07-27T12:43:15.607Z,70.30
2022-07-27T12:45:45.270Z,69.40
2022-07-27T12:48:36.930Z,70.00
2022-07-27T12:51:07.612Z,70.00
2022-07-27T12:54:06.512Z,68.90
2022-07-27T12:56:35.622Z,68.10
2022-07-27T12:59:03.892Z,67.10
2022-07-27T13:01:32.149Z,67.30
2022-07-27T13:03:59.589Z,64.10
2022-07-27T13:06:26.366Z,64.00
2022-07-27T13:08:53.721Z,64.50
2022-07-27T13:11:22.481Z,64.10
2022-07-27T13:13:50.310Z,65.10
2022-07-27T13:16:22.806Z,64.20
2022-07-27T13:19:16.675Z,64.80
2022-07-27T13:21:45.614Z,65.50
2022-07-27T13:24:12.465Z,65.50
2022-07-27T13:29:22.931Z,65.10
2022-07-27T13:31:57.125Z,64.40
2022-07-27T13:34:24.961Z,63.70
2022-07-27T13:36:54.730Z,64.70
2022-07-27T13:39:21.575Z,66.80
2022-07-27T13:41:55.058Z,63.90
2022-07-27T13:44:58.351Z,67.10
2022-07-27T13:47:15.562Z,62.40
2022-07-27T13:49:46.709Z,63.00
2022-07-27T13:52:18.762Z,63.50
2022-07-27T13:54:57.082Z,63.50
2022-07-27T13:57:25.214Z,64.20
2022-07-27T13:59:52.403Z,64.10
2022-07-27T14:02:22.922Z,65.50
2022-07-27T14:04:57.994Z,64.70
2022-07-27T14:07:28.677Z,64.90
2022-07-27T14:10:17.409Z,64.80
2022-07-27T14:12:56.831Z,65.30
2022-07-27T14:15:33.157Z,66.00
2022-07-27T14:17:59.910Z,66.90
2022-07-27T14:20:26.872Z,65.70
2022-07-27T14:22:56.687Z,66.50
2022-07-27T14:25:24.592Z,67.10
2022-07-27T14:27:51.397Z,67.60
2022-07-27T14:33:46.199Z,68.30
2022-07-27T14:36:13.007Z,67.60
2022-07-27T14:38:44.126Z,67.20
2022-07-27T14:41:13.494Z,67.40
2022-07-27T14:43:40.407Z,65.80
2022-07-27T14:46:10.177Z,66.20
2022-07-27T14:49:04.545Z,65.30
2022-07-27T14:51:27.916Z,65.20
2022-07-27T14:53:54.534Z,66.80
2022-07-27T14:56:25.347Z,65.70
2022-07-27T14:58:56.915Z,65.00
2022-07-27T15:01:24.570Z,65.20
2022-07-27T15:03:57.775Z,66.60
2022-07-27T15:06:39.176Z,63.40
2022-07-27T15:09:10.263Z,64.60
2022-07-27T15:14:30.583Z,63.50
2022-07-27T15:17:10.008Z,64.20
2022-07-27T15:19:39.013Z,63.10
2022-07-27T15:22:08.161Z,63.00
2022-07-27T15:24:47.686Z,62.60
2022-07-27T15:27:16.189Z,60.30
2022-07-27T15:29:43.673Z,61.00
2022-07-27T15:32:10.529Z,61.50
2022-07-27T15:34:38.192Z,60.00
2022-07-27T15:37:08.130Z,60.70
2022-07-27T15:39:39.929Z,60.10
2022-07-27T15:42:11.044Z,60.00
2022-07-27T15:44:38.009Z,60.30
2022-07-27T15:47:08.054Z,59.90
2022-07-27T15:49:34.875Z,59.20
2022-07-27T15:52:03.846Z,59.60
2022-07-27T15:54:33.835Z,59.30
2022-07-27T15:57:05.268Z,58.80
2022-07-27T15:59:32.015Z,59.10
2022-07-27T16:01:58.607Z,59.90
2022-07-27T16:04:26.453Z,58.80
2022-07-27T16:06:53.277Z,60.20
2022-07-27T16:09:27.678Z,59.30
2022-07-27T16:11:54.381Z,59.20
2022-07-27T16:14:20.992Z,60.00
2022-07-27T16:16:48.998Z,60.50
2022-07-27T16:19:16.113Z,60.10
2022-07-27T16:21:53.890Z,61.00
2022-07-27T16:24:24.809Z,59.80
2022-07-27T16:26:53.874Z,59.00
2022-07-27T16:29:20.643Z,59.30
2022-07-27T16:31:49.432Z,61.60
2022-07-27T16:34:32.193Z,60.50
2022-07-27T16:37:04.711Z,60.80
2022-07-27T16:39:32.613Z,59.80
2022-07-27T16:41:59.650Z,60.90
2022-07-27T16:44:48.992Z,61.70
2022-07-27T16:47:23.977Z,62.40
2022-07-27T16:49:53.864Z,61.30
2022-07-27T16:52:25.035Z,61.70
2022-07-27T16:54:52.006Z,63.70
2022-07-27T16:57:23.010Z,63.00
2022-07-27T16:59:53.224Z,62.40
2022-07-27T17:02:20.572Z,62.50
2022-07-27T17:04:47.359Z,62.50
2022-07-27T17:07:39.259Z,61.80
2022-07-27T17:10:09.696Z,61.90
2022-07-27T17:12:38.897Z,62.30
2022-07-27T17:15:07.116Z,62.80
2022-07-27T17:17:34.276Z,63.30
2022-07-27T17:20:02.750Z,63.80
2022-07-27T17:22:29.524Z,63.70
2022-07-27T17:25:00.744Z,64.00
2022-07-27T17:27:27.572Z,64.10
2022-07-27T17:29:54.288Z,64.10
2022-07-27T17:32:26.764Z,65.30
2022-07-27T17:34:56.120Z,64.40
2022-07-27T17:37:23.333Z,65.10
2022-07-27T17:39:50.008Z,64.80
2022-07-27T17:42:22.649Z,65.70
2022-07-27T17:44:49.460Z,65.80
2022-07-27T17:47:35.058Z,65.80
2022-07-27T17:50:05.150Z,66.50
2022-07-27T17:52:36.598Z,66.60
2022-07-27T17:55:05.777Z,66.00
2022-07-27T17:57:40.048Z,66.60
2022-07-27T18:00:12.376Z,66.40
2022-07-27T18:02:39.127Z,66.50
2022-07-27T18:05:16.586Z,67.60
2022-07-27T18:07:46.334Z,66.90
2022-07-27T18:10:16.123Z,67.20
2022-07-27T18:12:43.140Z,67.70
2022-07-27T18:15:28.498Z,67.80
2022-07-27T18:17:55.267Z,68.20
2022-07-27T18:20:25.667Z,68.30
2022-07-27T18:22:54.525Z,68.70
2022-07-27T18:25:22.079Z,67.80
2022-07-27T18:27:49.963Z,68.10
2022-07-27T18:30:19.144Z,68.40
2022-07-27T18:32:53.134Z,68.70
2022-07-27T18:35:20.519Z,68.90
2022-07-27T18:37:53.550Z,69.40
2022-07-27T18:40:21.178Z,69.40
2022-07-27T18:42:48.171Z,70.20
2022-07-27T18:45:17.682Z,70.10
2022-07-27T18:47:49.512Z,70.10
2022-07-27T18:50:21.892Z,70.50
2022-07-27T18:52:53.763Z,70.30
2022-07-27T18:55:45.859Z,70.30
2022-07-27T18:58:12.539Z,69.90
2022-07-27T19:01:05.099Z,70.10
2022-07-27T19:03:31.788Z,70.40
2022-07-27T19:06:01.616Z,70.80
2022-07-27T19:08:28.356Z,71.20
2022-07-27T19:10:55.096Z,71.70
2022-07-27T19:13:25.780Z,71.80
2022-07-27T19:15:52.522Z,72.20
2022-07-27T19:18:24.821Z,72.30
2022-07-27T19:20:53.942Z,73.10
2022-07-27T19:23:50.039Z,73.50
2022-07-27T19:26:18.992Z,73.50
2022-07-27T19:28:46.471Z,73.50
2022-07-27T19:31:22.623Z,73.50
2022-07-27T19:33:58.876Z,73.90
2022-07-27T19:36:29.936Z,73.90
2022-07-27T19:39:04.125Z,74.50
2022-07-27T19:41:45.037Z,74.80
2022-07-27T19:44:19.033Z,75.20
2022-07-27T19:46:50.681Z,76.00
2022-07-27T19:55:16.203Z,77.00
2022-07-27T19:57:42.959Z,77.00
2022-07-27T20:00:10.696Z,77.10
2022-07-27T20:03:04.701Z,77.40
2022-07-27T20:05:31.510Z,77.30
2022-07-27T20:07:58.383Z,77.60
2022-07-27T20:10:27.489Z,78.10
2022-07-27T20:12:54.240Z,78.70
2022-07-27T20:15:49.000Z,78.40
2022-07-27T20:18:17.925Z,78.40
2022-07-27T20:20:49.252Z,78.30
2022-07-27T20:23:19.004Z,78.40
2022-07-27T20:25:47.538Z,79.40
2022-07-27T20:28:14.601Z,79.20
2022-07-27T20:30:43.598Z,79.00
2022-07-27T20:33:14.311Z,78.80
2022-07-27T20:35:42.175Z,78.50
2022-07-27T20:38:11.518Z,78.50
2022-07-27T20:40:38.206Z,78.30
2022-07-27T20:43:06.990Z,78.20
2022-07-27T20:45:37.007Z,78.20
2022-07-27T20:48:03.889Z,78.40
2022-07-27T20:50:32.146Z,78.10
2022-07-27T20:53:03.457Z,78.00
2022-07-27T20:55:32.477Z,78.30
2022-07-27T20:57:59.470Z,78.50
2022-07-27T21:00:29.361Z,79.30
2022-07-27T21:02:56.436Z,79.90
2022-07-27T21:05:27.499Z,80.10
2022-07-27T21:07:55.426Z,80.40
2022-07-27T21:10:23.379Z,81.30
2022-07-27T21:12:50.835Z,81.90
2022-07-27T21:15:19.918Z,81.90
2022-07-27T21:17:48.965Z,81.70
2022-07-27T21:20:26.250Z,81.80
2022-07-27T21:23:12.711Z,81.30
2022-07-27T21:25:40.177Z,81.40
2022-07-27T21:28:09.369Z,81.90
2022-07-27T21:30:43.115Z,81.50
2022-07-27T21:33:09.942Z,81.50
2022-07-27T21:35:36.720Z,81.80
2022-07-27T21:38:04.030Z,81.40
2022-07-27T21:40:31.626Z,81.80
2022-07-27T21:43:01.235Z,82.00
2022-07-27T21:45:28.087Z,82.40
2022-07-27T21:47:58.061Z,83.50
2022-07-27T21:50:27.089Z,84.10
2022-07-27T21:53:00.800Z,84.50
2022-07-27T21:55:30.054Z,84.90
2022-07-27T21:58:00.207Z,85.20
2022-07-27T22:00:28.740Z,85.80
2022-07-27T22:02:55.819Z,87.30
2022-07-27T22:05:23.627Z,87.40
2022-07-27T22:07:57.125Z,88.00
2022-07-27T22:10:23.907Z,88.70
2022-07-27T22:12:50.717Z,89.10
2022-07-27T22:15:28.137Z,89.30
2022-07-27T22:18:00.381Z,89.00
2022-07-27T22:20:27.060Z,89.10
2022-07-27T22:22:53.786Z,89.10
2022-07-27T22:25:22.568Z,89.80
2022-07-27T22:27:51.726Z,89.30
2022-07-27T22:30:19.527Z,90.00
2022-07-27T22:32:54.660Z,89.40
2022-07-27T22:35:24.681Z,89.80
2022-07-27T22:37:52.325Z,90.10
2022-07-27T22:40:21.646Z,90.20
2022-07-27T22:45:51.175Z,90.30
2022-07-27T22:48:22.178Z,90.20
2022-07-27T22:50:49.871Z,90.40
2022-07-27T22:53:16.850Z,90.10
2022-07-27T22:55:43.724Z,90.00
2022-07-27T22:58:13.000Z,89.40
2022-07-27T23:00:40.619Z,89.30
2022-07-27T23:03:09.255Z,89.00
2022-07-27T23:05:38.891Z,88.80
2022-07-27T23:08:09.328Z,88.60
2022-07-27T23:10:47.810Z,88.40
2022-07-27T23:13:19.613Z,88.40
2022-07-27T23:15:46.596Z,88.60
2022-07-27T23:18:26.233Z,88.50
2022-07-27T23:21:00.333Z,88.70
2022-07-27T23:23:27.605Z,89.10
2022-07-27T23:25:56.951Z,89.10
2022-07-27T23:28:51.577Z,89.50
2022-07-27T23:31:23.658Z,89.70
2022-07-27T23:33:54.991Z,90.00
2022-07-27T23:36:21.846Z,90.20
2022-07-27T23:38:48.501Z,90.30
2022-07-27T23:41:18.401Z,90.30
2022-07-27T23:43:58.279Z,90.30
2022-07-27T23:46:27.991Z,90.30
2022-07-27T23:48:56.451Z,90.20
2022-07-27T23:54:21.421Z,91.10
2022-07-27T23:56:51.295Z,91.20
2022-07-27T23:59:19.382Z,91.90
